createdAt,value
2019-02-10T00:00:43.918Z,7.68
2019-02-10T00:01:53.603Z,7.67
2019-02-10T00:03:03.286Z,7.79
2019-02-10T00:04:12.986Z,7.71
2019-02-10T00:05:22.689Z,7.71
2019-02-10T00:06:32.620Z,7.68
2019-02-10T00:07:42.042Z,7.79
2019-02-10T00:08:51.726Z,7.79
2019-02-10T00:10:02.066Z,7.8
2019-02-10T00:11:11.755Z,7.87
2019-02-10T00:12:21.187Z,7.86
2019-02-10T00:13:31.113Z,7.9
2019-02-10T00:14:40.076Z,7.85
2019-02-10T00:15:49.510Z,7.87
2019-02-10T00:16:59.188Z,7.89
2019-02-10T00:18:08.613Z,7.89
2019-02-10T00:19:18.309Z,7.89
2019-02-10T00:20:28.235Z,7.75
2019-02-10T00:21:37.907Z,7.89
2019-02-10T00:22:47.595Z,7.87
2019-02-10T00:23:56.776Z,7.85
2019-02-10T00:25:06.709Z,7.8
2019-02-10T00:26:16.139Z,7.85
2019-02-10T00:27:25.566Z,7.89
2019-02-10T00:28:34.991Z,7.95
2019-02-10T00:29:44.169Z,7.93
2019-02-10T00:30:53.603Z,7.89
2019-02-10T00:32:03.279Z,7.95
2019-02-10T00:33:12.758Z,7.9
2019-02-10T00:34:22.185Z,8.04
2019-02-10T00:35:31.609Z,8.08
2019-02-10T00:36:41.036Z,8.04
2019-02-10T00:37:50.975Z,8.11
2019-02-10T00:39:00.151Z,8.08
2019-02-10T00:40:09.577Z,8.05
2019-02-10T00:41:19.250Z,8.04
2019-02-10T00:42:28.932Z,8
2019-02-10T00:43:38.604Z,8.12
2019-02-10T00:44:48.525Z,8.05
2019-02-10T00:45:58.465Z,8.07
2019-02-10T00:47:07.900Z,7.93
2019-02-10T00:48:17.630Z,7.95
2019-02-10T00:49:27.326Z,7.95
2019-02-10T00:50:36.772Z,7.98
2019-02-10T00:51:46.456Z,7.98
2019-02-10T00:52:56.127Z,8.07
2019-02-10T00:54:05.325Z,8.12
2019-02-10T00:55:15.024Z,8.04
2019-02-10T00:56:24.200Z,8
2019-02-10T00:57:33.634Z,8.04
2019-02-10T00:58:43.094Z,8.07
2019-02-10T00:59:52.771Z,8.05
2019-02-10T01:01:02.709Z,8.08
2019-02-10T01:02:12.638Z,8.12
2019-02-10T01:03:22.317Z,8.12
2019-02-10T01:04:31.753Z,8.11
2019-02-10T01:05:41.685Z,8.11
2019-02-10T01:06:51.364Z,8.16
2019-02-10T01:08:01.036Z,8.12
2019-02-10T01:09:10.725Z,8.15
2019-02-10T01:10:20.449Z,8.18
2019-02-10T01:11:30.127Z,8.19
2019-02-10T01:12:39.306Z,8.22
2019-02-10T01:13:48.747Z,8.16
2019-02-10T01:14:58.671Z,8.12
2019-02-10T01:16:08.100Z,8.19
2019-02-10T01:17:17.284Z,8.18
2019-02-10T01:18:26.971Z,8.12
2019-02-10T01:19:36.900Z,8.19
2019-02-10T01:20:46.836Z,8.19
2019-02-10T01:21:56.511Z,8.18
2019-02-10T01:23:06.184Z,8.19
2019-02-10T01:24:15.125Z,8.3
2019-02-10T01:25:24.803Z,8.19
2019-02-10T01:26:34.731Z,8.15
2019-02-10T01:27:44.402Z,8.16
2019-02-10T01:28:53.830Z,8.22
2019-02-10T01:30:03.774Z,8.16
2019-02-10T01:31:13.456Z,8.16
2019-02-10T01:32:23.146Z,8.18
2019-02-10T01:33:32.068Z,8.16
2019-02-10T01:34:41.496Z,8.12
2019-02-10T01:35:51.166Z,8
2019-02-10T01:37:00.867Z,8.01
2019-02-10T01:38:10.539Z,8.08
2019-02-10T01:39:19.957Z,8.04
2019-02-10T01:40:29.391Z,8.02
2019-02-10T01:41:38.817Z,7.98
2019-02-10T01:42:48.505Z,8.01
2019-02-10T01:43:58.189Z,8.02
2019-02-10T01:45:08.120Z,8.11
2019-02-10T01:46:17.797Z,8.11
2019-02-10T01:47:27.481Z,8.11
2019-02-10T01:48:37.411Z,8.12
2019-02-10T01:49:47.342Z,8
2019-02-10T01:50:57.015Z,8.04
2019-02-10T01:52:06.441Z,8.07
2019-02-10T01:53:16.368Z,8.11
2019-02-10T01:54:25.818Z,8.11
2019-02-10T01:55:35.509Z,8.05
2019-02-10T01:56:44.940Z,8.1
2019-02-10T01:57:54.611Z,8.02
2019-02-10T01:59:04.315Z,8.08
2019-02-10T02:00:14.244Z,8.15
2019-02-10T02:01:23.929Z,8
2019-02-10T02:02:33.109Z,7.97
2019-02-10T02:03:42.774Z,7.95
2019-02-10T02:04:52.695Z,7.97
2019-02-10T02:06:02.114Z,7.92
2019-02-10T02:07:11.799Z,8.02
2019-02-10T02:08:21.228Z,7.87
2019-02-10T02:09:30.404Z,7.86
2019-02-10T02:10:39.599Z,7.87
2019-02-10T02:11:49.285Z,7.87
2019-02-10T02:12:58.971Z,7.85
2019-02-10T02:14:08.654Z,7.83
2019-02-10T02:15:18.329Z,7.85
2019-02-10T02:16:28.263Z,7.83
2019-02-10T02:17:37.695Z,7.79
2019-02-10T02:18:47.641Z,7.85
2019-02-10T02:19:57.576Z,7.85
2019-02-10T02:21:07.512Z,7.85
2019-02-10T02:22:17.437Z,7.87
2019-02-10T02:23:26.875Z,7.87
2019-02-10T02:24:36.549Z,7.9
2019-02-10T02:25:46.477Z,7.92
2019-02-10T02:29:54.347Z,7.9
2019-02-10T02:31:04.306Z,7.89
2019-02-10T02:32:14.282Z,7.82
2019-02-10T02:33:24.224Z,7.72
2019-02-10T02:34:33.911Z,7.63
2019-02-10T02:35:43.860Z,7.68
2019-02-10T02:36:53.550Z,7.69
2019-02-10T02:38:12.367Z,7.6
2019-02-10T02:39:22.295Z,7.52
2019-02-10T02:40:31.989Z,7.57
2019-02-10T02:41:41.440Z,7.55
2019-02-10T02:42:51.384Z,7.57
2019-02-10T02:44:01.095Z,7.61
2019-02-10T02:45:12.686Z,7.57
2019-02-10T02:46:22.377Z,7.58
2019-02-10T02:47:31.565Z,7.57
2019-02-10T02:48:41.019Z,7.55
2019-02-10T02:49:50.973Z,7.53
2019-02-10T02:51:01.047Z,7.55
2019-02-10T02:52:10.848Z,7.55
2019-02-10T02:53:20.813Z,7.52
2019-02-10T02:54:30.754Z,7.52
2019-02-10T02:55:40.447Z,7.49
2019-02-10T02:56:50.177Z,7.46
2019-02-10T02:57:59.614Z,7.48
2019-02-10T02:59:09.561Z,7.43
2019-02-10T03:00:19.056Z,7.48
2019-02-10T03:01:28.992Z,7.4
2019-02-10T03:02:38.688Z,7.35
2019-02-10T03:03:48.617Z,7.32
2019-02-10T03:04:58.325Z,7.32
2019-02-10T03:06:07.758Z,7.25
2019-02-10T03:07:23.041Z,7.28
2019-02-10T03:08:32.971Z,7.31
2019-02-10T03:09:42.673Z,7.35
2019-02-10T03:10:52.354Z,7.27
2019-02-10T03:12:02.044Z,7.28
2019-02-10T03:13:11.741Z,7.17
2019-02-10T03:14:21.684Z,7.27
2019-02-10T03:15:30.631Z,7.25
2019-02-10T03:16:40.091Z,7.17
2019-02-10T03:17:50.030Z,7.13
2019-02-10T03:18:59.719Z,7.17
2019-02-10T03:20:09.176Z,7.23
2019-02-10T03:21:18.374Z,7.15
2019-02-10T03:22:27.809Z,7.13
2019-02-10T03:23:37.512Z,7.17
2019-02-10T03:24:47.450Z,7.15
2019-02-10T03:25:56.895Z,7.17
2019-02-10T03:27:06.833Z,7.23
2019-02-10T03:28:16.778Z,7.12
2019-02-10T03:29:26.227Z,7.13
2019-02-10T03:30:36.178Z,7.16
2019-02-10T03:31:45.946Z,7.09
2019-02-10T03:32:55.678Z,7.24
2019-02-10T03:36:28.636Z,7.06
2019-02-10T03:37:38.077Z,7.02
2019-02-10T03:38:48.025Z,7.02
2019-02-10T03:39:57.716Z,7.02
2019-02-10T03:41:07.846Z,7.05
2019-02-10T03:42:17.792Z,6.98
2019-02-10T03:43:27.472Z,7.02
2019-02-10T03:44:36.907Z,7.07
2019-02-10T03:45:46.344Z,6.99
2019-02-10T03:46:56.284Z,7.03
2019-02-10T03:48:06.233Z,7.02
2019-02-10T03:49:16.186Z,7.09
2019-02-10T03:50:26.127Z,7.06
2019-02-10T03:51:35.657Z,7.02
2019-02-10T03:52:45.587Z,6.99
2019-02-10T03:53:55.278Z,7.05
2019-02-10T03:55:05.292Z,6.99
2019-02-10T03:56:15.267Z,7.05
2019-02-10T03:57:25.223Z,7.03
2019-02-10T03:58:35.167Z,7.05
2019-02-10T03:59:45.121Z,7.06
2019-02-10T04:00:54.555Z,7.1
2019-02-10T04:02:04.492Z,7.09
2019-02-10T04:03:14.479Z,7.09
2019-02-10T04:04:24.161Z,7.23
2019-02-10T04:05:34.089Z,7.13
2019-02-10T04:06:43.776Z,7.16
2019-02-10T04:07:53.726Z,7.15
2019-02-10T04:09:03.654Z,7.16
2019-02-10T04:10:13.362Z,7.16
2019-02-10T04:11:22.795Z,7.2
2019-02-10T04:12:32.503Z,7.21
2019-02-10T04:13:42.443Z,7.2
2019-02-10T04:14:52.117Z,7.17
2019-02-10T04:16:01.567Z,7.09
2019-02-10T04:17:11.242Z,7.21
2019-02-10T04:18:20.417Z,7.21
2019-02-10T04:19:30.391Z,7.15
2019-02-10T04:20:39.830Z,7.16
2019-02-10T04:21:49.275Z,7.24
2019-02-10T04:22:58.954Z,7.28
2019-02-10T04:24:08.379Z,7.24
2019-02-10T04:25:18.065Z,7.32
2019-02-10T04:26:27.745Z,7.32
2019-02-10T04:27:37.698Z,7.3
2019-02-10T04:28:47.419Z,7.31
2019-02-10T04:29:56.840Z,7.37
2019-02-10T04:31:05.770Z,7.31
2019-02-10T04:32:15.456Z,7.43
2019-02-10T04:33:25.406Z,7.4
2019-02-10T04:34:35.338Z,7.46
2019-02-10T04:35:45.272Z,7.43
2019-02-10T04:36:54.980Z,7.43
2019-02-10T04:38:04.677Z,7.48
2019-02-10T04:39:14.349Z,7.46
2019-02-10T04:40:24.046Z,7.5
2019-02-10T04:41:34.028Z,7.48
2019-02-10T04:42:43.970Z,7.42
2019-02-10T04:43:53.655Z,7.39
2019-02-10T04:45:03.607Z,7.45
2019-02-10T04:46:13.058Z,7.48
2019-02-10T04:47:23.000Z,7.48
2019-02-10T04:48:32.685Z,7.46
2019-02-10T04:49:42.113Z,7.43
2019-02-10T04:50:51.287Z,7.42
2019-02-10T04:52:01.242Z,7.48
2019-02-10T04:53:10.947Z,7.43
2019-02-10T04:54:20.622Z,7.4
2019-02-10T04:55:30.585Z,7.43
2019-02-10T04:56:40.044Z,7.45
2019-02-10T04:57:49.965Z,7.57
2019-02-10T04:58:59.649Z,7.55
2019-02-10T05:00:09.444Z,7.45
2019-02-10T05:01:19.148Z,7.6
2019-02-10T05:02:29.084Z,7.52
2019-02-10T05:03:39.025Z,7.55
2019-02-10T05:04:48.971Z,7.49
2019-02-10T05:05:58.399Z,7.52
2019-02-10T05:07:08.345Z,7.48
2019-02-10T05:08:18.054Z,7.5
2019-02-10T05:09:27.739Z,7.53
2019-02-10T05:10:37.445Z,7.49
2019-02-10T05:11:47.141Z,7.57
2019-02-10T05:12:56.829Z,7.58
2019-02-10T05:14:06.766Z,7.57
2019-02-10T05:15:16.448Z,7.55
2019-02-10T05:16:26.388Z,7.58
2019-02-10T05:17:36.083Z,7.55
2019-02-10T05:18:45.769Z,7.49
2019-02-10T05:19:55.200Z,7.57
2019-02-10T05:21:04.880Z,7.53
2019-02-10T05:22:14.563Z,7.57
2019-02-10T05:23:24.255Z,7.5
2019-02-10T05:24:34.193Z,7.52
2019-02-10T05:25:44.122Z,7.5
2019-02-10T05:26:53.054Z,7.48
2019-02-10T05:28:02.736Z,7.53
2019-02-10T05:29:12.333Z,7.5
2019-02-10T05:30:22.273Z,7.5
2019-02-10T05:31:32.005Z,7.6
2019-02-10T05:32:41.953Z,7.53
2019-02-10T05:33:51.888Z,7.55
2019-02-10T05:35:01.323Z,7.57
2019-02-10T05:36:11.265Z,7.53
2019-02-10T05:37:21.222Z,7.46
2019-02-10T05:38:30.692Z,7.52
2019-02-10T05:39:40.139Z,7.55
2019-02-10T05:40:50.084Z,7.48
2019-02-10T05:41:59.763Z,7.48
2019-02-10T05:43:08.950Z,7.45
2019-02-10T05:44:18.927Z,7.45
2019-02-10T05:45:28.610Z,7.49
2019-02-10T05:46:38.547Z,7.46
2019-02-10T05:47:48.483Z,7.4
2019-02-10T05:48:58.425Z,7.48
2019-02-10T05:50:08.440Z,7.48
2019-02-10T05:51:18.151Z,7.43
2019-02-10T05:52:27.590Z,7.45
2019-02-10T05:53:37.042Z,7.43
2019-02-10T05:54:46.751Z,7.45
2019-02-10T05:55:56.698Z,7.45
2019-02-10T05:57:06.384Z,7.42
2019-02-10T05:58:15.862Z,7.39
2019-02-10T05:59:25.845Z,7.37
2019-02-10T06:00:35.789Z,7.4
2019-02-10T06:01:45.215Z,7.35
2019-02-10T06:02:54.942Z,7.3
2019-02-10T06:04:04.628Z,7.3
2019-02-10T06:05:14.328Z,7.35
2019-02-10T06:06:24.097Z,7.32
2019-02-10T06:07:33.285Z,7.32
2019-02-10T06:08:43.211Z,7.28
2019-02-10T06:09:53.144Z,7.32
2019-02-10T06:11:03.099Z,7.3
2019-02-10T06:12:12.543Z,7.3
2019-02-10T06:13:22.237Z,7.31
2019-02-10T06:14:32.178Z,7.32
2019-02-10T06:15:41.610Z,7.34
2019-02-10T06:16:51.540Z,7.28
2019-02-10T06:18:01.215Z,7.32
2019-02-10T06:19:10.664Z,7.31
2019-02-10T06:20:20.614Z,7.28
2019-02-10T06:21:30.549Z,7.27
2019-02-10T06:22:40.225Z,7.31
2019-02-10T06:23:50.161Z,7.23
2019-02-10T06:24:59.865Z,7.31
2019-02-10T06:26:10.050Z,7.16
2019-02-10T06:27:19.746Z,7.16
2019-02-10T06:28:28.924Z,7.31
2019-02-10T06:29:38.858Z,7.31
2019-02-10T06:30:48.337Z,7.31
2019-02-10T06:31:58.274Z,7.21
2019-02-10T06:33:07.963Z,7.16
2019-02-10T06:34:17.635Z,7.16
2019-02-10T06:35:27.073Z,7.25
2019-02-10T06:36:37.021Z,7.15
2019-02-10T06:37:46.767Z,7.17
2019-02-10T06:38:56.451Z,7.09
2019-02-10T06:40:06.416Z,7.2
2019-02-10T06:41:16.105Z,7.12
2019-02-10T06:42:25.796Z,7.03
2019-02-10T06:43:35.483Z,7.12
2019-02-10T06:44:44.918Z,7.07
2019-02-10T06:45:54.662Z,7.05
2019-02-10T06:47:04.089Z,7.05
2019-02-10T06:48:13.517Z,7.02
2019-02-10T06:49:23.462Z,7.06
2019-02-10T06:50:33.392Z,7.05
2019-02-10T06:51:43.071Z,7.06
2019-02-10T06:52:52.752Z,6.97
2019-02-10T06:54:02.678Z,7.02
2019-02-10T06:55:11.856Z,7.03
2019-02-10T06:56:21.034Z,6.98
2019-02-10T06:57:30.707Z,6.99
2019-02-10T06:58:40.380Z,7.03
2019-02-10T06:59:50.064Z,6.98
2019-02-10T07:00:59.993Z,7.02
2019-02-10T07:02:09.670Z,7.02
2019-02-10T07:03:19.367Z,6.99
2019-02-10T07:04:28.789Z,6.88
2019-02-10T07:05:38.477Z,6.87
2019-02-10T07:06:47.909Z,6.8
2019-02-10T07:07:57.363Z,6.8
2019-02-10T07:09:07.036Z,6.91
2019-02-10T07:10:16.474Z,6.94
2019-02-10T07:11:25.891Z,6.94
2019-02-10T07:12:35.824Z,6.88
2019-02-10T07:13:45.248Z,6.84
2019-02-10T07:14:54.922Z,6.95
2019-02-10T07:16:04.346Z,6.8
2019-02-10T07:17:14.025Z,6.81
2019-02-10T07:18:23.708Z,6.77
2019-02-10T07:19:33.400Z,6.77
2019-02-10T07:20:43.354Z,6.94
2019-02-10T07:21:53.034Z,6.79
2019-02-10T07:23:02.481Z,6.71
2019-02-10T07:24:11.669Z,6.69
2019-02-10T07:25:21.601Z,6.71
2019-02-10T07:26:31.542Z,6.84
2019-02-10T07:27:41.469Z,6.84
2019-02-10T07:28:51.395Z,6.71
2019-02-10T07:30:01.065Z,6.8
2019-02-10T07:31:10.502Z,6.74
2019-02-10T07:32:20.175Z,6.76
2019-02-10T07:33:30.103Z,6.74
2019-02-10T07:34:47.646Z,6.76
2019-02-10T07:35:57.975Z,6.67
2019-02-10T07:37:07.974Z,6.61
2019-02-10T07:38:17.665Z,6.67
2019-02-10T07:39:27.098Z,6.71
2019-02-10T07:40:37.067Z,6.59
2019-02-10T07:41:47.016Z,6.71
2019-02-10T07:42:56.686Z,6.71
2019-02-10T07:44:06.369Z,6.7
2019-02-10T07:45:16.300Z,6.69
2019-02-10T07:46:26.235Z,6.67
2019-02-10T07:47:35.663Z,6.77
2019-02-10T07:48:45.587Z,6.73
2019-02-10T07:49:54.769Z,6.66
2019-02-10T07:51:04.453Z,6.62
2019-02-10T07:52:13.886Z,6.64
2019-02-10T07:53:23.565Z,6.59
2019-02-10T07:54:33.416Z,6.61
2019-02-10T07:55:49.885Z,6.44
2019-02-10T07:56:59.568Z,6.56
2019-02-10T07:58:09.251Z,6.54
2019-02-10T07:59:18.950Z,6.48
2019-02-10T08:00:28.868Z,6.52
2019-02-10T08:01:38.556Z,6.46
2019-02-10T08:02:47.736Z,6.49
2019-02-10T08:03:57.426Z,6.49
2019-02-10T08:05:07.112Z,6.56
2019-02-10T08:06:17.045Z,6.62
2019-02-10T08:07:26.974Z,6.51
2019-02-10T08:08:36.912Z,6.59
2019-02-10T08:09:54.068Z,6.49
2019-02-10T08:11:03.989Z,6.46
2019-02-10T08:12:13.670Z,6.41
2019-02-10T08:13:23.354Z,6.49
2019-02-10T08:14:33.026Z,6.46
2019-02-10T08:15:42.955Z,6.49
2019-02-10T08:16:52.885Z,6.43
2019-02-10T08:18:03.021Z,6.49
2019-02-10T08:20:16.916Z,6.58
2019-02-10T08:21:26.672Z,6.59
2019-02-10T08:22:36.352Z,6.62
2019-02-10T08:23:46.026Z,6.59
2019-02-10T08:24:55.453Z,6.64
2019-02-10T08:26:05.601Z,6.56
2019-02-10T08:27:15.314Z,6.62
2019-02-10T08:28:25.007Z,6.59
2019-02-10T08:29:34.706Z,6.54
2019-02-10T08:30:44.411Z,6.49
2019-02-10T08:31:53.892Z,6.56
2019-02-10T08:33:03.336Z,6.49
2019-02-10T08:34:13.270Z,6.52
2019-02-10T08:35:22.960Z,6.49
2019-02-10T08:36:32.632Z,6.58
2019-02-10T08:37:42.315Z,6.59
2019-02-10T08:38:59.042Z,6.66
2019-02-10T08:40:08.225Z,6.61
2019-02-10T08:41:17.651Z,6.59
2019-02-10T08:42:27.324Z,6.58
2019-02-10T08:43:37.009Z,6.62
2019-02-10T08:44:46.987Z,6.51
2019-02-10T08:45:56.166Z,6.52
2019-02-10T08:47:05.848Z,6.49
2019-02-10T08:48:15.796Z,6.48
2019-02-10T08:49:25.733Z,6.52
2019-02-10T08:50:35.696Z,6.48
2019-02-10T08:51:45.642Z,6.44
2019-02-10T08:52:56.932Z,6.58
2019-02-10T08:54:06.884Z,6.58
2019-02-10T08:55:16.555Z,6.58
2019-02-10T08:56:26.235Z,6.56
2019-02-10T08:57:35.409Z,6.61
2019-02-10T08:58:44.589Z,6.62
2019-02-10T08:59:54.267Z,6.51
2019-02-10T09:01:03.716Z,6.58
2019-02-10T09:02:13.701Z,6.61
2019-02-10T09:03:24.663Z,6.59
2019-02-10T09:04:34.346Z,6.59
2019-02-10T09:05:43.274Z,6.48
2019-02-10T09:06:52.700Z,6.52
2019-02-10T09:08:02.651Z,6.56
2019-02-10T09:09:12.590Z,6.55
2019-02-10T09:10:22.528Z,6.49
2019-02-10T09:11:32.493Z,6.59
2019-02-10T09:12:41.677Z,6.48
2019-02-10T09:13:51.601Z,6.56
2019-02-10T09:15:01.274Z,6.48
2019-02-10T09:16:10.706Z,6.49
2019-02-10T09:17:20.638Z,6.43
2019-02-10T09:18:30.569Z,6.52
2019-02-10T09:19:40.493Z,6.51
2019-02-10T09:20:49.919Z,6.48
2019-02-10T09:21:59.361Z,6.58
2019-02-10T09:23:09.032Z,6.44
2019-02-10T09:24:18.453Z,6.52
2019-02-10T09:25:28.142Z,6.49
2019-02-10T09:26:38.080Z,6.49
2019-02-10T09:27:48.009Z,6.55
2019-02-10T09:28:57.939Z,6.56
2019-02-10T09:30:07.664Z,6.59
2019-02-10T09:31:17.336Z,6.54
2019-02-10T09:32:26.769Z,6.62
2019-02-10T09:33:36.495Z,6.61
2019-02-10T09:34:45.663Z,6.61
2019-02-10T09:35:55.147Z,6.64
2019-02-10T09:37:04.856Z,6.64
2019-02-10T09:38:14.946Z,6.71
2019-02-10T09:39:24.904Z,6.66
2019-02-10T09:40:34.874Z,6.69
2019-02-10T09:41:44.807Z,6.61
2019-02-10T09:42:54.228Z,6.67
2019-02-10T09:44:04.157Z,6.71
2019-02-10T09:45:13.842Z,6.74
2019-02-10T09:46:23.572Z,6.7
2019-02-10T09:47:33.248Z,6.67
2019-02-10T09:48:42.952Z,6.61
2019-02-10T09:49:52.372Z,6.73
2019-02-10T09:51:01.295Z,6.7
2019-02-10T09:52:10.987Z,6.66
2019-02-10T09:53:20.927Z,6.76
2019-02-10T09:54:30.379Z,6.67
2019-02-10T09:55:40.334Z,6.77
2019-02-10T09:56:49.785Z,6.76
2019-02-10T09:57:59.233Z,6.79
2019-02-10T09:59:09.184Z,6.71
2019-02-10T10:00:18.870Z,6.77
2019-02-10T10:01:28.548Z,6.74
2019-02-10T10:02:38.486Z,6.74
2019-02-10T10:03:48.171Z,6.71
2019-02-10T10:04:57.094Z,6.74
2019-02-10T10:06:07.030Z,6.7
2019-02-10T10:07:16.958Z,6.84
2019-02-10T10:08:26.883Z,6.84
2019-02-10T10:09:36.561Z,6.87
2019-02-10T10:10:46.500Z,6.85
2019-02-10T10:11:56.179Z,6.88
2019-02-10T10:13:05.853Z,6.91
2019-02-10T10:14:15.781Z,6.92
2019-02-10T10:15:27.131Z,6.85
2019-02-10T10:16:36.822Z,6.88
2019-02-10T10:17:46.748Z,6.88
2019-02-10T10:18:56.425Z,6.87
2019-02-10T10:20:05.851Z,6.92
2019-02-10T10:21:15.527Z,6.91
2019-02-10T10:22:25.461Z,6.92
2019-02-10T10:23:35.209Z,6.98
2019-02-10T14:47:32.282Z,9.5
2019-02-10T14:48:42.209Z,9.51
2019-02-10T14:49:52.140Z,9.68
2019-02-10T14:51:01.817Z,9.78
2019-02-10T14:52:11.759Z,9.87
2019-02-10T14:53:21.695Z,9.9
2019-02-10T14:54:31.379Z,9.78
2019-02-10T14:55:41.072Z,9.83
2019-02-10T14:56:50.997Z,9.81
2019-02-10T14:58:00.175Z,9.75
2019-02-10T14:59:09.358Z,9.76
2019-02-10T15:00:19.064Z,9.72
2019-02-10T15:01:28.492Z,9.69
2019-02-10T15:02:38.172Z,9.66
2019-02-10T15:03:48.104Z,9.65
2019-02-10T15:04:58.051Z,9.68
2019-02-10T15:06:07.352Z,9.65
2019-02-10T15:07:25.093Z,9.57
2019-02-10T15:08:35.163Z,9.51
2019-02-10T15:09:45.090Z,9.5
2019-02-10T15:10:54.029Z,9.53
2019-02-10T15:12:04.519Z,9.51
2019-02-10T15:13:13.978Z,9.48
2019-02-10T15:14:23.408Z,9.43
2019-02-10T15:15:33.096Z,9.43
2019-02-10T15:16:42.780Z,9.42
2019-02-10T15:17:52.473Z,9.42
2019-02-10T15:19:02.414Z,9.36
2019-02-10T15:20:11.853Z,9.33
2019-02-10T15:21:21.532Z,9.36
2019-02-10T15:22:31.220Z,9.2
2019-02-10T15:23:40.913Z,9.23
2019-02-10T15:24:50.594Z,9.2
2019-02-10T15:26:00.277Z,9.21
2019-02-10T15:27:10.217Z,9.1
2019-02-10T15:28:20.148Z,9.05
2019-02-10T15:29:29.837Z,9.02
2019-02-10T15:30:39.764Z,8.91
2019-02-10T15:31:49.448Z,8.95
2019-02-10T15:32:59.393Z,8.94
2019-02-10T15:34:08.832Z,8.94
2019-02-10T15:35:18.756Z,8.91
2019-02-10T15:36:28.685Z,8.92
2019-02-10T15:37:38.117Z,8.83
2019-02-10T15:38:47.807Z,8.77
2019-02-10T15:39:57.485Z,8.73
2019-02-10T15:41:07.165Z,8.74
2019-02-10T15:42:16.593Z,8.7
2019-02-10T15:43:26.286Z,8.65
2019-02-10T15:44:36.223Z,8.65
2019-02-10T15:45:45.964Z,8.62
2019-02-10T15:46:55.909Z,8.58
2019-02-10T15:48:05.587Z,8.56
2019-02-10T15:49:17.140Z,8.53
2019-02-10T15:50:26.821Z,8.56
2019-02-10T15:51:42.104Z,8.44
2019-02-10T15:52:51.793Z,8.47
2019-02-10T15:54:01.234Z,8.45
2019-02-10T15:55:10.661Z,8.59
2019-02-10T15:56:20.395Z,8.55
2019-02-10T15:57:30.078Z,8.48
2019-02-10T15:58:39.514Z,8.48
2019-02-10T15:59:49.188Z,8.41
2019-02-10T16:00:58.871Z,8.47
2019-02-10T16:02:08.060Z,8.44
2019-02-10T16:03:17.986Z,8.43
2019-02-10T16:04:28.892Z,8.41
2019-02-10T16:05:38.563Z,8.43
2019-02-10T16:06:48.243Z,8.43
2019-02-10T16:07:57.913Z,8.36
2019-02-10T16:09:07.587Z,8.47
2019-02-10T16:10:17.521Z,8.44
2019-02-10T16:11:26.705Z,8.34
2019-02-10T16:12:36.628Z,8.36
2019-02-10T16:13:46.305Z,8.34
2019-02-10T16:14:56.227Z,8.4
2019-02-10T16:16:05.893Z,8.29
2019-02-10T16:17:15.317Z,8.36
2019-02-10T16:18:24.992Z,8.26
2019-02-10T16:19:34.172Z,8.28
2019-02-10T16:20:43.849Z,8.23
2019-02-10T16:21:53.535Z,8.33
2019-02-10T16:23:03.471Z,8.3
2019-02-10T16:24:13.153Z,8.23
2019-02-10T16:25:22.854Z,8.25
2019-02-10T16:26:32.534Z,8.19
2019-02-10T16:27:41.959Z,8.23
2019-02-10T16:28:51.876Z,8.16
2019-02-10T16:30:01.554Z,8.19
2019-02-10T16:32:40.837Z,8.08
2019-02-10T16:33:56.742Z,8.08
2019-02-10T16:35:06.419Z,8.11
2019-02-10T16:36:16.347Z,8
2019-02-10T16:37:26.028Z,8.08
2019-02-10T16:38:35.216Z,7.93
2019-02-10T16:39:44.640Z,8.02
2019-02-10T16:40:54.078Z,7.86
2019-02-10T16:42:11.604Z,7.82
2019-02-10T16:43:22.036Z,7.86
2019-02-10T16:44:31.462Z,7.83
2019-02-10T16:45:41.136Z,7.63
2019-02-10T16:46:52.002Z,7.72
2019-02-10T16:48:01.721Z,7.71
2019-02-10T16:49:11.147Z,7.69
2019-02-10T16:50:20.575Z,7.64
2019-02-10T16:51:30.258Z,7.67
2019-02-10T16:52:39.684Z,7.6
2019-02-10T16:53:49.624Z,7.53
2019-02-10T16:54:59.056Z,7.53
2019-02-10T16:56:08.987Z,7.58
2019-02-10T16:57:18.430Z,7.57
2019-02-10T16:58:28.100Z,7.53
2019-02-10T16:59:37.274Z,7.58
2019-02-10T17:00:47.007Z,7.5
2019-02-10T17:01:56.938Z,7.46
2019-02-10T17:03:07.769Z,7.43
2019-02-10T17:04:17.801Z,7.46
2019-02-10T17:05:27.531Z,7.43
2019-02-10T17:06:37.231Z,7.46
2019-02-10T17:07:46.679Z,7.46
2019-02-10T17:08:56.114Z,7.31
2019-02-10T17:10:05.543Z,7.34
2019-02-10T17:11:19.301Z,7.32
2019-02-10T17:12:28.971Z,7.17
2019-02-10T17:13:38.386Z,7.23
2019-02-10T17:14:48.318Z,7.17
2019-02-10T17:16:04.880Z,7.12
2019-02-10T17:17:14.673Z,7.02
2019-02-10T17:18:24.596Z,7.06
2019-02-10T17:19:34.276Z,6.98
2019-02-10T17:20:44.204Z,6.98
2019-02-10T17:21:54.140Z,7.12
2019-02-10T17:23:04.061Z,7.06
2019-02-10T17:24:13.487Z,7.02
2019-02-10T17:25:22.673Z,6.87
2019-02-10T17:26:32.352Z,7.02
2019-02-10T17:27:42.036Z,6.98
2019-02-10T17:28:51.954Z,6.88
2019-02-10T17:30:01.879Z,6.87
2019-02-10T17:31:11.318Z,6.79
2019-02-10T17:32:21.241Z,7.1
2019-02-10T17:33:31.170Z,7.06
2019-02-10T17:34:41.100Z,6.94
2019-02-10T17:35:50.532Z,6.92
2019-02-10T17:37:00.223Z,6.8
2019-02-10T17:38:09.807Z,6.81
2019-02-10T17:39:19.234Z,6.8
2019-02-10T17:40:28.912Z,6.67
2019-02-10T17:41:38.580Z,6.81
2019-02-10T17:42:48.006Z,6.54
2019-02-10T17:43:57.509Z,6.58
2019-02-10T17:45:07.181Z,6.46
2019-02-10T17:46:16.617Z,6.56
2019-02-10T17:47:26.545Z,6.49
2019-02-10T17:48:36.225Z,6.38
2019-02-10T17:49:45.905Z,6.34
2019-02-10T17:50:55.779Z,6.15
2019-02-10T17:52:04.710Z,6.28
2019-02-10T17:53:14.640Z,6.08
2019-02-10T17:54:23.821Z,6.04
2019-02-10T17:55:32.998Z,6.25
2019-02-10T17:56:42.919Z,6.08
2019-02-10T17:57:52.840Z,5.86
2019-02-10T17:59:02.773Z,6.09
2019-02-10T18:00:12.196Z,5.75
2019-02-10T18:01:21.390Z,5.79
2019-02-10T18:02:31.330Z,5.82
2019-02-10T18:06:55.518Z,5.65
2019-02-10T18:08:05.211Z,5.67
2019-02-10T18:09:14.645Z,5.61
2019-02-10T18:10:23.819Z,5.65
2019-02-10T18:11:35.794Z,5.72
2019-02-10T18:12:45.522Z,5.57
2019-02-10T18:13:55.228Z,5.6
2019-02-10T18:15:05.169Z,5.45
2019-02-10T18:16:14.852Z,5.42
2019-02-10T18:17:24.780Z,5.48
2019-02-10T18:18:34.461Z,5.33
2019-02-10T18:19:43.884Z,5.39
2019-02-10T18:20:53.307Z,5.22
2019-02-10T18:22:02.987Z,5.2
2019-02-10T18:23:12.714Z,5.1
2019-02-10T18:24:22.381Z,5.09
2019-02-10T18:25:32.054Z,5.24
2019-02-10T18:26:41.980Z,4.96
2019-02-10T18:27:51.905Z,5.07
2019-02-10T18:29:01.342Z,5.07
2019-02-10T18:30:11.020Z,5.43
2019-02-10T18:31:20.937Z,5.06
2019-02-10T18:32:30.610Z,4.99
2019-02-10T18:33:40.300Z,4.89
2019-02-10T18:34:50.230Z,4.75
2019-02-10T18:35:59.657Z,4.89
2019-02-10T18:37:08.585Z,4.84
2019-02-10T18:38:18.305Z,5.02
2019-02-10T18:39:27.748Z,4.99
2019-02-10T18:43:00.641Z,5.07
2019-02-10T18:44:10.393Z,5.12
2019-02-10T18:45:19.638Z,4.94
2019-02-10T18:46:29.317Z,5
2019-02-10T18:47:39.252Z,4.97
2019-02-10T18:48:48.683Z,4.7
2019-02-10T18:49:58.107Z,4.73
2019-02-10T18:51:07.777Z,4.69
2019-02-10T18:52:17.209Z,4.58
2019-02-10T18:53:26.391Z,4.69
2019-02-10T18:54:36.060Z,4.96
2019-02-10T18:55:45.246Z,4.7
2019-02-10T18:56:54.679Z,4.77
2019-02-10T18:58:04.469Z,4.65
2019-02-10T18:59:14.448Z,4.59
2019-02-10T19:00:24.152Z,4.29
2019-02-10T19:01:33.909Z,4.51
2019-02-10T19:02:43.851Z,4.29
2019-02-10T19:03:53.532Z,4.36
2019-02-10T19:05:02.965Z,4.44
2019-02-10T19:06:13.154Z,4.65
2019-02-10T19:07:22.840Z,4.37
2019-02-10T19:08:32.522Z,4.52
2019-02-10T19:09:41.698Z,4.12
2019-02-10T19:10:51.383Z,4.2
2019-02-10T19:12:01.050Z,4.33
2019-02-10T19:13:10.985Z,4.67
2019-02-10T19:14:20.680Z,4.24
2019-02-10T19:15:30.348Z,4.04
2019-02-10T19:16:39.776Z,4.15
2019-02-10T19:17:49.246Z,3.93
2019-02-10T19:18:58.426Z,4
2019-02-10T19:20:08.405Z,3.86
2019-02-10T19:21:17.595Z,3.75
2019-02-10T19:22:27.354Z,3.75
2019-02-10T19:23:37.274Z,4.15
2019-02-10T19:24:46.691Z,3.88
2019-02-10T19:25:56.606Z,3.88
2019-02-10T19:27:05.794Z,3.87
2019-02-10T19:28:15.706Z,3.79
2019-02-10T19:29:25.564Z,3.62
2019-02-10T19:30:35.109Z,3.66
2019-02-10T19:31:44.278Z,3.54
2019-02-10T19:32:54.214Z,3.66
2019-02-10T19:34:03.643Z,3.66
2019-02-10T19:35:13.144Z,3.57
2019-02-10T19:36:22.575Z,3.4
2019-02-10T19:37:32.264Z,3.15
2019-02-10T19:38:41.947Z,3.03
2019-02-10T19:39:51.374Z,3.1
2019-02-10T19:41:00.559Z,3.32
2019-02-10T19:42:10.488Z,3.24
2019-02-10T19:43:20.162Z,2.96
2019-02-10T19:44:30.093Z,3.11
2019-02-10T19:45:40.016Z,2.97
2019-02-10T19:46:49.686Z,3.17
2019-02-10T19:47:59.113Z,3.28
2019-02-10T19:49:08.545Z,2.99
2019-02-10T19:50:18.218Z,2.95
2019-02-10T19:51:27.385Z,3.02
2019-02-10T19:52:37.058Z,2.9
2019-02-10T19:53:46.787Z,2.92
2019-02-10T19:54:56.712Z,3.33
2019-02-10T19:56:06.683Z,3.32
2019-02-10T19:57:16.612Z,3.02
2019-02-10T19:58:26.280Z,3.31
2019-02-10T19:59:36.205Z,3.15
2019-02-10T20:00:45.929Z,3.03
2019-02-10T20:01:55.253Z,2.82
2019-02-10T20:03:04.745Z,2.99
2019-02-10T20:04:14.845Z,2.95
2019-02-10T20:05:24.784Z,3.06
2019-02-10T20:06:34.177Z,3.03
2019-02-10T20:07:43.462Z,2.78
2019-02-10T20:08:53.387Z,2.54